createdAt,value
2022-12-14T00:00:10.790Z,97.20
2022-12-14T00:01:10.758Z,97.31
2022-12-14T00:02:10.798Z,97.41
2022-12-14T00:03:10.858Z,97.58
2022-12-14T00:04:10.729Z,98.01
2022-12-14T00:05:10.873Z,97.91
2022-12-14T00:06:10.683Z,97.91
2022-12-14T00:07:10.697Z,97.80
2022-12-14T00:08:10.731Z,97.69
2022-12-14T00:09:10.730Z,97.58
2022-12-14T00:10:10.638Z,97.41
2022-12-14T00:11:10.661Z,97.31
2022-12-14T00:12:10.621Z,97.31
2022-12-14T00:13:10.621Z,97.20
2022-12-14T00:14:10.687Z,97.09
2022-12-14T00:15:10.710Z,96.88
2022-12-14T00:16:10.664Z,96.77
2022-12-14T00:17:11.300Z,96.70
2022-12-14T00:18:10.568Z,96.49
2022-12-14T00:19:10.580Z,96.39
2022-12-14T00:20:10.519Z,96.39
2022-12-14T00:21:10.882Z,96.39
2022-12-14T00:22:10.638Z,96.49
2022-12-14T00:23:10.478Z,96.92
2022-12-14T00:24:11.072Z,97.03
2022-12-14T00:25:10.498Z,97.03
2022-12-14T00:26:10.557Z,97.03
2022-12-14T00:27:10.541Z,96.92
2022-12-14T00:28:10.654Z,96.70
2022-12-14T00:29:11.539Z,96.60
2022-12-14T00:30:10.427Z,96.49
2022-12-14T00:31:10.467Z,96.39
2022-12-14T00:32:10.407Z,96.49
2022-12-14T00:33:10.413Z,96.49
2022-12-14T00:34:10.365Z,96.60
2022-12-14T00:35:10.423Z,96.60
2022-12-14T00:36:10.471Z,96.60
2022-12-14T00:37:10.399Z,96.49
2022-12-14T00:38:10.340Z,96.53
2022-12-14T00:39:10.300Z,96.43
2022-12-14T00:40:10.393Z,96.43
2022-12-14T00:41:10.310Z,96.32
2022-12-14T00:42:11.300Z,96.43
2022-12-14T00:43:10.329Z,96.43
2022-12-14T00:44:10.317Z,96.43
2022-12-14T00:45:10.344Z,96.32
2022-12-14T00:46:10.272Z,96.32
2022-12-14T00:47:10.308Z,96.22
2022-12-14T00:48:10.359Z,96.04
2022-12-14T00:49:10.238Z,95.94
2022-12-14T00:50:10.231Z,95.72
2022-12-14T00:51:10.252Z,95.72
2022-12-14T00:52:10.178Z,95.94
2022-12-14T00:53:10.187Z,96.04
2022-12-14T00:54:10.186Z,96.04
2022-12-14T00:55:10.260Z,96.22
2022-12-14T00:56:10.178Z,96.53
2022-12-14T00:57:10.131Z,96.96
2022-12-14T00:58:10.065Z,97.35
2022-12-14T00:59:10.085Z,97.45
2022-12-14T01:00:10.040Z,97.45
2022-12-14T01:01:11.045Z,97.35
2022-12-14T01:02:10.242Z,97.24
2022-12-14T01:03:10.041Z,97.03
2022-12-14T01:04:10.075Z,96.86
2022-12-14T01:05:10.048Z,96.53
2022-12-14T01:06:10.025Z,96.32
2022-12-14T01:07:10.017Z,96.22
2022-12-14T01:08:09.984Z,96.11
2022-12-14T01:09:09.958Z,96.11
2022-12-14T01:10:10.670Z,96.11
2022-12-14T01:11:10.038Z,96.00
2022-12-14T01:12:09.959Z,96.04
2022-12-14T01:13:09.931Z,95.94
2022-12-14T01:14:09.910Z,95.94
2022-12-14T01:15:09.898Z,95.83
2022-12-14T01:16:10.018Z,95.94
2022-12-14T01:17:10.033Z,95.83
2022-12-14T01:18:09.876Z,95.83
2022-12-14T01:19:09.840Z,95.61
2022-12-14T01:20:09.949Z,95.51
2022-12-14T01:21:09.829Z,95.40
2022-12-14T01:22:09.857Z,95.29
2022-12-14T01:23:09.816Z,95.23
2022-12-14T01:24:09.768Z,95.23
2022-12-14T01:25:10.769Z,95.40
2022-12-14T01:26:09.788Z,95.72
2022-12-14T01:27:09.802Z,96.04
2022-12-14T01:28:09.772Z,96.15
2022-12-14T01:29:09.716Z,96.32
2022-12-14T01:30:09.728Z,96.53
2022-12-14T01:31:09.814Z,96.64
2022-12-14T01:32:09.749Z,96.64
2022-12-14T01:33:09.666Z,96.60
2022-12-14T01:34:09.670Z,96.60
2022-12-14T01:35:10.825Z,96.60
2022-12-14T01:36:09.750Z,96.49
2022-12-14T01:37:09.637Z,96.70
2022-12-14T01:38:09.661Z,96.92
2022-12-14T01:39:09.631Z,97.03
2022-12-14T01:40:10.858Z,97.03
2022-12-14T01:41:09.608Z,96.92
2022-12-14T01:42:09.720Z,96.92
2022-12-14T01:43:09.598Z,96.81
2022-12-14T01:44:10.478Z,96.81
2022-12-14T01:45:09.625Z,96.60
2022-12-14T01:46:09.559Z,96.49
2022-12-14T01:47:12.838Z,96.49
2022-12-14T01:48:09.521Z,96.60
2022-12-14T01:49:09.490Z,96.70
2022-12-14T01:50:09.527Z,96.81
2022-12-14T01:51:09.464Z,96.81
2022-12-14T01:52:09.455Z,96.92
2022-12-14T01:53:09.500Z,96.92
2022-12-14T01:54:09.575Z,96.70
2022-12-14T01:55:09.492Z,96.60
2022-12-14T01:56:09.417Z,96.60
2022-12-14T01:57:09.566Z,96.60
2022-12-14T01:58:09.397Z,96.60
2022-12-14T01:59:09.392Z,96.60
2022-12-14T02:00:09.379Z,96.60
2022-12-14T02:01:09.463Z,96.70
2022-12-14T02:02:09.469Z,96.70
2022-12-14T02:03:09.416Z,96.60
2022-12-14T02:04:09.377Z,96.39
2022-12-14T02:05:09.749Z,96.28
2022-12-14T02:06:09.353Z,96.17
2022-12-14T02:07:09.316Z,96.17
2022-12-14T02:08:09.313Z,96.28
2022-12-14T02:09:09.256Z,96.28
2022-12-14T02:10:10.032Z,96.39
2022-12-14T02:11:09.269Z,96.39
2022-12-14T02:12:09.256Z,96.39
2022-12-14T02:13:09.270Z,96.39
2022-12-14T02:14:09.188Z,96.28
2022-12-14T02:15:10.058Z,96.06
2022-12-14T02:16:09.350Z,96.11
2022-12-14T02:17:09.145Z,96.28
2022-12-14T02:18:09.197Z,96.49
2022-12-14T02:19:09.163Z,96.28
2022-12-14T02:20:09.177Z,96.06
2022-12-14T02:21:09.180Z,95.96
2022-12-14T02:22:09.115Z,95.85
2022-12-14T02:23:09.155Z,95.89
2022-12-14T02:24:09.495Z,95.89
2022-12-14T02:25:09.385Z,96.00
2022-12-14T02:26:09.086Z,96.11
2022-12-14T02:27:09.110Z,96.28
2022-12-14T02:28:09.835Z,96.70
2022-12-14T02:29:09.065Z,96.92
2022-12-14T02:30:09.144Z,97.03
2022-12-14T02:31:09.091Z,97.14
2022-12-14T02:32:09.001Z,97.03
2022-12-14T02:33:09.014Z,97.09
2022-12-14T02:34:09.026Z,97.09
2022-12-14T02:35:09.980Z,97.20
2022-12-14T02:36:09.100Z,97.31
2022-12-14T02:37:09.999Z,97.41
2022-12-14T02:38:08.945Z,97.52
2022-12-14T02:39:08.987Z,97.58
2022-12-14T02:40:08.881Z,97.58
2022-12-14T02:41:08.876Z,97.47
2022-12-14T02:42:08.911Z,97.37
2022-12-14T02:43:08.888Z,97.26
2022-12-14T02:44:08.916Z,97.16
2022-12-14T02:45:08.853Z,97.09
2022-12-14T02:46:08.811Z,96.98
2022-12-14T02:47:08.838Z,96.88
2022-12-14T02:48:09.256Z,96.77
2022-12-14T02:49:08.893Z,96.66
2022-12-14T02:50:08.796Z,96.56
2022-12-14T02:51:09.172Z,96.56
2022-12-14T02:52:08.857Z,96.66
2022-12-14T02:53:08.781Z,96.66
2022-12-14T02:54:08.825Z,96.70
2022-12-14T02:55:09.816Z,96.60
2022-12-14T02:56:09.277Z,96.49
2022-12-14T02:57:08.736Z,96.49
2022-12-14T02:58:08.695Z,96.39
2022-12-14T02:59:08.774Z,96.39
2022-12-14T03:00:09.217Z,96.49
2022-12-14T03:01:09.840Z,96.39
2022-12-14T03:02:08.805Z,96.39
2022-12-14T03:03:08.751Z,96.28
2022-12-14T03:04:08.628Z,96.28
2022-12-14T03:05:08.715Z,96.39
2022-12-14T03:06:08.624Z,96.39
2022-12-14T03:07:08.626Z,96.49
2022-12-14T03:08:08.696Z,96.70
2022-12-14T03:09:08.674Z,96.81
2022-12-14T03:10:08.900Z,96.70
2022-12-14T03:11:08.524Z,96.81
2022-12-14T03:12:08.553Z,96.70
2022-12-14T03:13:08.750Z,96.70
2022-12-14T03:14:09.513Z,96.64
2022-12-14T03:15:08.538Z,96.43
2022-12-14T03:16:08.553Z,96.32
2022-12-14T03:17:08.472Z,96.22
2022-12-14T03:18:08.456Z,96.22
2022-12-14T03:19:08.692Z,96.11
2022-12-14T03:20:08.599Z,96.11
2022-12-14T03:21:08.457Z,96.11
2022-12-14T03:22:08.559Z,96.04
2022-12-14T03:23:08.495Z,96.04
2022-12-14T03:24:08.434Z,95.94
2022-12-14T03:25:08.545Z,95.83
2022-12-14T03:26:08.947Z,95.83
2022-12-14T03:27:08.344Z,95.72
2022-12-14T03:28:08.367Z,95.72
2022-12-14T03:29:08.317Z,95.83
2022-12-14T03:30:09.519Z,95.94
2022-12-14T03:31:08.411Z,95.94
2022-12-14T03:32:08.284Z,96.09
2022-12-14T03:33:08.257Z,96.36
2022-12-14T03:34:13.230Z,96.69
2022-12-14T03:35:09.285Z,97.01
2022-12-14T03:36:08.517Z,97.28
2022-12-14T03:37:08.246Z,97.50
2022-12-14T03:38:08.280Z,97.50
2022-12-14T03:39:08.206Z,97.39
2022-12-14T03:40:08.204Z,97.28
2022-12-14T03:41:08.205Z,97.18
2022-12-14T03:42:08.172Z,97.11
2022-12-14T03:43:08.187Z,96.90
2022-12-14T03:44:08.204Z,96.69
2022-12-14T03:45:08.241Z,96.47
2022-12-14T03:46:08.162Z,96.30
2022-12-14T03:47:08.117Z,96.09
2022-12-14T03:48:09.323Z,95.87
2022-12-14T03:49:08.096Z,95.48
2022-12-14T03:50:08.114Z,95.27
2022-12-14T03:51:09.037Z,94.99
2022-12-14T03:52:08.175Z,94.78
2022-12-14T03:53:08.228Z,94.56
2022-12-14T03:54:08.043Z,94.38
2022-12-14T03:55:08.026Z,94.28
2022-12-14T03:56:08.068Z,94.28
2022-12-14T03:57:08.168Z,94.28
2022-12-14T03:58:08.004Z,94.28
2022-12-14T03:59:08.037Z,94.38
2022-12-14T04:00:07.972Z,94.38
2022-12-14T04:01:09.259Z,94.49
2022-12-14T04:02:08.083Z,94.49
2022-12-14T04:03:08.020Z,94.60
2022-12-14T04:04:08.819Z,94.60
2022-12-14T04:05:08.115Z,94.71
2022-12-14T04:06:07.943Z,94.82
2022-12-14T04:07:09.036Z,95.03
2022-12-14T04:08:08.940Z,95.31
2022-12-14T04:09:08.037Z,95.42
2022-12-14T04:10:07.855Z,95.31
2022-12-14T04:11:07.967Z,95.20
2022-12-14T04:12:07.847Z,95.10
2022-12-14T04:13:09.304Z,95.20
2022-12-14T04:14:07.803Z,95.31
2022-12-14T04:15:08.746Z,95.31
2022-12-14T04:16:07.801Z,95.20
2022-12-14T04:17:08.595Z,95.20
2022-12-14T04:18:07.797Z,95.10
2022-12-14T04:19:08.236Z,94.88
2022-12-14T04:20:07.760Z,94.99
2022-12-14T04:21:07.826Z,94.99
2022-12-14T04:22:07.741Z,94.99
2022-12-14T04:23:07.727Z,95.20
2022-12-14T04:24:07.892Z,95.42
2022-12-14T04:25:07.703Z,95.42
2022-12-14T04:26:07.677Z,95.31
2022-12-14T04:27:07.855Z,95.20
2022-12-14T04:28:07.724Z,95.03
2022-12-14T04:29:07.662Z,94.82
2022-12-14T04:30:07.656Z,94.60
2022-12-14T04:31:07.733Z,94.49
2022-12-14T04:32:07.784Z,94.38
2022-12-14T04:33:07.624Z,94.43
2022-12-14T04:34:07.719Z,94.54
2022-12-14T04:35:07.606Z,94.75
2022-12-14T04:36:07.697Z,94.75
2022-12-14T04:37:07.538Z,94.75
2022-12-14T04:38:07.534Z,94.86
2022-12-14T04:39:07.494Z,94.96
2022-12-14T04:40:07.474Z,94.96
2022-12-14T04:41:07.503Z,95.25
2022-12-14T04:42:07.678Z,95.57
2022-12-14T04:43:07.526Z,95.89
2022-12-14T04:44:07.461Z,95.89
2022-12-14T04:45:08.463Z,95.89
2022-12-14T04:46:07.711Z,95.78
2022-12-14T04:47:07.418Z,95.57
2022-12-14T04:48:07.427Z,95.25
2022-12-14T04:49:08.600Z,95.03
2022-12-14T04:50:07.373Z,94.92
2022-12-14T04:51:08.404Z,94.92
2022-12-14T04:52:07.396Z,95.25
2022-12-14T04:53:07.446Z,95.53
2022-12-14T04:54:07.335Z,95.64
2022-12-14T04:55:08.290Z,95.64
2022-12-14T04:56:08.433Z,95.64
2022-12-14T04:57:07.416Z,95.64
2022-12-14T04:58:07.321Z,95.74
2022-12-14T04:59:08.733Z,95.95
2022-12-14T05:00:07.293Z,95.95
2022-12-14T05:01:07.298Z,95.85
2022-12-14T05:02:07.595Z,95.85
2022-12-14T05:03:07.327Z,95.74
2022-12-14T05:04:12.343Z,95.74
2022-12-14T05:05:08.301Z,95.53
2022-12-14T05:06:07.193Z,95.36
2022-12-14T05:07:07.192Z,95.25
2022-12-14T05:08:07.215Z,95.14
2022-12-14T05:09:07.325Z,94.92
2022-12-14T05:10:07.194Z,94.82
2022-12-14T05:11:39.607Z,94.71
2022-12-14T05:12:08.144Z,94.60
2022-12-14T05:13:07.145Z,94.54
2022-12-14T05:14:08.232Z,94.32
2022-12-14T05:15:07.112Z,94.21
2022-12-14T05:16:07.089Z,94.10
2022-12-14T05:17:09.337Z,94.32
2022-12-14T05:18:07.072Z,94.32
2022-12-14T05:19:08.004Z,94.43
2022-12-14T05:20:07.104Z,94.43
2022-12-14T05:21:07.126Z,94.32
2022-12-14T05:22:07.029Z,94.21
2022-12-14T05:23:07.060Z,94.21
2022-12-14T05:24:06.991Z,94.32
2022-12-14T05:25:07.252Z,94.43
2022-12-14T05:26:07.224Z,94.54
2022-12-14T05:27:06.966Z,94.75
2022-12-14T05:28:07.925Z,94.82
2022-12-14T05:29:07.819Z,94.96
2022-12-14T05:30:07.325Z,94.92
2022-12-14T05:31:06.950Z,94.92
2022-12-14T05:32:06.902Z,95.25
2022-12-14T05:33:06.914Z,95.36
2022-12-14T05:34:06.876Z,95.36
2022-12-14T05:35:06.873Z,95.46
2022-12-14T05:36:06.971Z,95.46
2022-12-14T05:37:06.941Z,95.36
2022-12-14T05:38:06.947Z,95.25
2022-12-14T05:39:07.887Z,95.14
2022-12-14T05:40:07.265Z,95.14
2022-12-14T05:41:06.793Z,95.03
2022-12-14T05:42:07.602Z,95.14
2022-12-14T05:43:08.017Z,95.36
2022-12-14T05:44:06.770Z,95.57
2022-12-14T05:45:06.842Z,95.78
2022-12-14T05:46:06.838Z,95.89
2022-12-14T05:47:06.808Z,96.00
2022-12-14T05:48:06.902Z,96.06
2022-12-14T05:49:07.715Z,96.28
2022-12-14T05:50:07.853Z,96.39
2022-12-14T05:51:07.761Z,96.28
2022-12-14T05:52:06.673Z,96.17
2022-12-14T05:53:07.562Z,96.06
2022-12-14T05:54:06.658Z,95.95
2022-12-14T05:55:06.664Z,95.85
2022-12-14T05:56:06.653Z,95.74
2022-12-14T05:57:06.619Z,95.64
2022-12-14T05:58:06.845Z,95.53
2022-12-14T05:59:06.827Z,95.53
2022-12-14T06:00:06.890Z,95.46
2022-12-14T06:01:06.599Z,95.36
2022-12-14T06:02:06.741Z,95.14
2022-12-14T06:03:06.597Z,95.03
2022-12-14T06:04:06.748Z,94.96
2022-12-14T06:05:07.439Z,94.75
2022-12-14T06:06:06.626Z,94.64
2022-12-14T06:07:07.246Z,94.43
2022-12-14T06:08:06.599Z,94.37
2022-12-14T06:09:06.456Z,94.15
2022-12-14T06:10:06.554Z,94.15
2022-12-14T06:11:06.873Z,94.04
2022-12-14T06:12:06.483Z,93.93
2022-12-14T06:13:06.531Z,94.04
2022-12-14T06:14:07.602Z,94.15
2022-12-14T06:15:06.601Z,94.26
2022-12-14T06:16:07.423Z,94.26
2022-12-14T06:17:06.540Z,94.37
2022-12-14T06:18:06.392Z,94.58
2022-12-14T06:19:07.125Z,94.68
2022-12-14T06:20:06.338Z,94.68
2022-12-14T06:21:07.443Z,94.68
2022-12-14T06:22:06.356Z,94.68
2022-12-14T06:23:06.342Z,94.68
2022-12-14T06:24:06.325Z,94.62
2022-12-14T06:25:07.468Z,94.68
2022-12-14T06:26:07.180Z,94.73
2022-12-14T06:27:07.368Z,94.62
2022-12-14T06:28:06.397Z,94.62
2022-12-14T06:29:06.280Z,94.51
2022-12-14T06:30:07.162Z,94.40
2022-12-14T06:31:06.387Z,94.51
2022-12-14T06:32:06.380Z,94.40
2022-12-14T06:33:07.302Z,94.40
2022-12-14T06:34:06.222Z,94.68
2022-12-14T06:35:06.834Z,95.22
2022-12-14T06:36:06.282Z,95.44
2022-12-14T06:37:06.931Z,95.44
2022-12-14T06:38:06.176Z,95.50
2022-12-14T06:39:07.241Z,95.61
2022-12-14T06:40:06.161Z,95.61
2022-12-14T06:41:06.160Z,95.61
2022-12-14T06:42:06.963Z,95.61
2022-12-14T06:43:06.276Z,95.61
2022-12-14T06:44:06.087Z,95.61
2022-12-14T06:45:06.108Z,95.68
2022-12-14T06:46:09.957Z,95.78
2022-12-14T06:47:07.036Z,95.78
2022-12-14T06:48:06.101Z,95.68
2022-12-14T06:49:06.025Z,95.46
2022-12-14T06:50:06.338Z,95.40
2022-12-14T06:51:06.095Z,95.18
2022-12-14T06:52:06.140Z,95.07
2022-12-14T06:53:05.960Z,94.96
2022-12-14T06:54:05.945Z,94.96
2022-12-14T06:55:06.803Z,94.96
2022-12-14T06:56:06.027Z,95.07
2022-12-14T06:57:05.942Z,95.07
2022-12-14T06:58:05.908Z,95.07
2022-12-14T06:59:06.060Z,94.96
2022-12-14T07:00:06.781Z,94.86
2022-12-14T07:01:05.981Z,94.90
2022-12-14T07:02:06.076Z,94.96
2022-12-14T07:03:07.112Z,94.96
2022-12-14T07:04:06.831Z,94.96
2022-12-14T07:05:06.809Z,94.96
2022-12-14T07:06:06.129Z,94.96
2022-12-14T07:07:06.601Z,95.07
2022-12-14T07:08:05.897Z,95.07
2022-12-14T07:09:06.932Z,95.07
2022-12-14T07:10:06.829Z,95.18
2022-12-14T07:11:05.840Z,95.18
2022-12-14T07:12:05.883Z,95.18
2022-12-14T07:13:05.724Z,95.07
2022-12-14T07:14:05.928Z,95.07
2022-12-14T07:15:05.801Z,94.96
2022-12-14T07:16:05.795Z,94.86
2022-12-14T07:17:05.672Z,94.79
2022-12-14T07:18:05.703Z,94.68
2022-12-14T07:19:05.872Z,94.47
2022-12-14T07:20:05.787Z,94.26
2022-12-14T07:21:05.624Z,94.26
2022-12-14T07:22:05.730Z,94.26
2022-12-14T07:23:05.589Z,94.37
2022-12-14T07:24:05.811Z,94.37
2022-12-14T07:25:05.601Z,94.47
2022-12-14T07:26:05.586Z,94.26
2022-12-14T07:27:05.615Z,94.15
2022-12-14T07:28:05.753Z,94.15
2022-12-14T07:29:05.590Z,94.26
2022-12-14T07:30:05.661Z,94.37
2022-12-14T07:31:05.578Z,94.58
2022-12-14T07:32:06.298Z,94.90
2022-12-14T07:33:05.514Z,95.18
2022-12-14T07:34:06.569Z,95.40
2022-12-14T07:35:05.488Z,95.50
2022-12-14T07:36:05.565Z,95.36
2022-12-14T07:37:06.314Z,95.25
2022-12-14T07:38:05.420Z,95.14
2022-12-14T07:39:06.397Z,95.03
2022-12-14T07:40:05.593Z,94.96
2022-12-14T07:41:05.449Z,94.86
2022-12-14T07:42:05.957Z,94.75
2022-12-14T07:43:05.527Z,94.54
2022-12-14T07:44:06.123Z,94.21
2022-12-14T07:45:05.372Z,94.10
2022-12-14T07:46:05.449Z,94.00
2022-12-14T07:47:06.374Z,94.00
2022-12-14T07:48:05.357Z,94.32
2022-12-14T07:49:05.777Z,94.64
2022-12-14T07:50:05.490Z,94.64
2022-12-14T07:51:05.344Z,94.54
2022-12-14T07:52:05.292Z,94.43
2022-12-14T07:53:05.343Z,94.54
2022-12-14T07:54:05.395Z,94.64
2022-12-14T07:55:05.352Z,94.64
2022-12-14T07:56:06.508Z,94.64
2022-12-14T07:57:06.262Z,94.54
2022-12-14T07:58:06.321Z,94.54
2022-12-14T07:59:06.228Z,94.54
2022-12-14T08:00:05.199Z,94.54
2022-12-14T08:01:05.260Z,94.54
2022-12-14T08:02:05.305Z,94.43
2022-12-14T08:03:05.239Z,94.43
2022-12-14T08:04:05.369Z,94.54
2022-12-14T08:05:12.094Z,94.60
2022-12-14T08:06:07.089Z,94.60
2022-12-14T08:07:05.891Z,94.49
2022-12-14T08:08:05.862Z,94.60
2022-12-14T08:09:06.291Z,94.71
2022-12-14T08:10:05.220Z,94.71
2022-12-14T08:11:05.093Z,94.60
2022-12-14T08:12:05.258Z,94.71
2022-12-14T08:13:05.681Z,95.03
2022-12-14T08:14:05.073Z,95.20
2022-12-14T08:15:05.786Z,95.20
2022-12-14T08:16:05.176Z,95.20
2022-12-14T08:17:05.156Z,95.20
2022-12-14T08:18:05.898Z,95.31
2022-12-14T08:19:05.108Z,95.37
2022-12-14T08:20:05.010Z,95.48
2022-12-14T08:21:05.018Z,95.59
2022-12-14T08:22:04.950Z,95.59
2022-12-14T08:23:05.832Z,95.48
2022-12-14T08:24:05.871Z,95.48
2022-12-14T08:25:04.956Z,95.55
2022-12-14T08:26:04.899Z,95.76
2022-12-14T08:27:05.176Z,95.87
2022-12-14T08:28:04.910Z,96.04
2022-12-14T08:29:04.845Z,96.04
2022-12-14T08:30:04.882Z,96.04
2022-12-14T08:31:05.014Z,95.94
2022-12-14T08:32:04.908Z,96.00
2022-12-14T08:33:05.797Z,96.11
2022-12-14T08:34:04.882Z,96.17
2022-12-14T08:35:05.753Z,96.17
2022-12-14T08:36:04.756Z,96.28
2022-12-14T08:37:05.295Z,96.56
2022-12-14T08:38:04.807Z,96.83
2022-12-14T08:39:04.824Z,97.11
2022-12-14T08:40:04.758Z,97.11
2022-12-14T08:41:04.693Z,96.96
2022-12-14T08:42:04.857Z,96.86
2022-12-14T08:43:04.720Z,96.75
2022-12-14T08:44:04.862Z,96.43
2022-12-14T08:45:04.712Z,96.11
2022-12-14T08:46:04.997Z,95.79
2022-12-14T08:47:04.739Z,95.47
2022-12-14T08:48:04.672Z,95.36
2022-12-14T08:49:04.714Z,95.36
2022-12-14T08:50:04.667Z,95.25
2022-12-14T08:51:04.596Z,95.14
2022-12-14T08:52:04.596Z,95.25
2022-12-14T08:53:04.558Z,95.47
2022-12-14T08:54:04.583Z,95.47
2022-12-14T08:55:05.466Z,95.57
2022-12-14T08:56:04.754Z,95.57
2022-12-14T08:57:04.556Z,95.57
2022-12-14T08:58:04.508Z,95.36
2022-12-14T08:59:05.481Z,95.14
2022-12-14T09:00:05.496Z,95.08
2022-12-14T09:01:04.742Z,94.97
2022-12-14T09:02:04.651Z,95.36
2022-12-14T09:03:04.697Z,95.79
2022-12-14T09:04:04.490Z,96.11
2022-12-14T09:05:04.624Z,96.32
2022-12-14T09:06:04.406Z,96.22
2022-12-14T09:07:04.499Z,96.28
2022-12-14T09:08:04.682Z,96.28
2022-12-14T09:09:04.417Z,96.39
2022-12-14T09:10:04.469Z,96.39
2022-12-14T09:11:04.428Z,96.34
2022-12-14T09:12:05.357Z,96.02
2022-12-14T09:13:04.438Z,95.92
2022-12-14T09:14:04.395Z,95.92
2022-12-14T09:15:04.307Z,95.70
2022-12-14T09:16:04.339Z,95.59
2022-12-14T09:17:04.318Z,95.59
2022-12-14T09:18:04.288Z,95.59
2022-12-14T09:19:04.326Z,95.38
2022-12-14T09:20:04.320Z,95.70
2022-12-14T09:21:04.240Z,95.81
2022-12-14T09:22:04.394Z,95.59
2022-12-14T09:23:04.267Z,95.49
2022-12-14T09:24:04.260Z,95.06
2022-12-14T09:25:04.208Z,94.85
2022-12-14T09:26:04.221Z,94.74
2022-12-14T09:27:04.168Z,94.74
2022-12-14T09:28:04.248Z,94.57
2022-12-14T09:29:04.228Z,94.46
2022-12-14T09:30:04.155Z,94.35
2022-12-14T09:31:04.178Z,94.35
2022-12-14T09:32:04.261Z,94.89
2022-12-14T09:33:04.380Z,95.10
2022-12-14T09:34:04.163Z,95.00
2022-12-14T09:35:04.102Z,95.21
2022-12-14T09:36:04.112Z,95.42
2022-12-14T09:37:04.258Z,95.53
2022-12-14T09:38:04.164Z,95.64
2022-12-14T09:39:04.060Z,95.64
2022-12-14T09:40:04.085Z,95.53
2022-12-14T09:41:07.223Z,95.53
2022-12-14T09:42:04.091Z,95.75
2022-12-14T09:43:04.049Z,95.70
2022-12-14T09:44:04.055Z,95.92
2022-12-14T09:45:04.366Z,95.92
2022-12-14T09:46:03.985Z,95.81
2022-12-14T09:47:03.966Z,95.70
2022-12-14T09:48:03.927Z,95.49
2022-12-14T09:49:03.908Z,95.38
2022-12-14T09:50:04.346Z,95.28
2022-12-14T09:51:04.056Z,95.31
2022-12-14T09:52:03.919Z,95.10
2022-12-14T09:53:03.855Z,95.10
2022-12-14T09:54:03.896Z,95.42
2022-12-14T09:55:04.257Z,95.53
2022-12-14T09:56:03.839Z,95.53
2022-12-14T09:57:03.835Z,95.53
2022-12-14T09:58:03.837Z,95.70
2022-12-14T09:59:03.838Z,96.02
2022-12-14T10:00:03.834Z,96.13
2022-12-14T10:01:03.814Z,96.34
2022-12-14T10:03:07.120Z,96.02
2022-12-14T10:04:05.029Z,95.87
2022-12-14T10:05:04.878Z,95.70
2022-12-14T10:06:03.785Z,95.49
2022-12-14T10:07:03.799Z,95.49
2022-12-14T10:08:04.166Z,95.59
2022-12-14T10:09:03.752Z,95.49
2022-12-14T10:10:03.737Z,95.49
2022-12-14T10:11:04.158Z,95.55
2022-12-14T10:12:03.744Z,95.66
2022-12-14T10:13:03.677Z,96.25
2022-12-14T10:14:03.620Z,96.36
2022-12-14T10:15:03.634Z,96.25
2022-12-14T10:16:03.733Z,96.15
2022-12-14T10:17:03.609Z,96.15
2022-12-14T10:18:03.628Z,95.94
2022-12-14T10:19:04.028Z,95.51
2022-12-14T10:20:03.580Z,95.19
2022-12-14T10:21:04.370Z,94.98
2022-12-14T10:22:03.506Z,95.62
2022-12-14T10:23:03.524Z,96.11
2022-12-14T10:24:03.577Z,96.32
2022-12-14T10:25:04.210Z,96.59
2022-12-14T10:26:03.491Z,96.38
2022-12-14T10:27:03.688Z,96.17
2022-12-14T10:28:11.747Z,95.95
2022-12-14T10:29:04.472Z,95.95
2022-12-14T10:30:03.554Z,95.85
2022-12-14T10:31:04.431Z,95.64
2022-12-14T10:32:03.583Z,95.53
2022-12-14T10:33:03.397Z,95.53
2022-12-14T10:34:05.487Z,95.42
2022-12-14T10:35:04.076Z,95.38
2022-12-14T10:36:03.540Z,95.06
2022-12-14T10:37:04.362Z,94.85
2022-12-14T10:38:03.556Z,94.85
2022-12-14T10:39:03.317Z,95.38
2022-12-14T10:40:07.625Z,95.28
2022-12-14T10:41:04.321Z,95.28
2022-12-14T10:42:03.337Z,95.12
2022-12-14T10:43:03.386Z,95.12
2022-12-14T10:44:03.299Z,95.94
2022-12-14T10:45:38.564Z,96.36
2022-12-14T10:46:10.030Z,96.42
2022-12-14T10:47:05.488Z,96.42
2022-12-14T10:48:03.380Z,96.48
2022-12-14T10:49:03.308Z,96.06
2022-12-14T10:50:03.395Z,95.64
2022-12-14T10:51:03.395Z,96.01
2022-12-14T10:52:03.268Z,96.23
2022-12-14T10:53:03.164Z,96.12
2022-12-14T10:54:04.265Z,95.81
2022-12-14T10:55:03.136Z,95.76
2022-12-14T10:56:04.121Z,95.87
2022-12-14T10:57:03.339Z,95.76
2022-12-14T10:58:03.124Z,95.93
2022-12-14T10:59:04.295Z,95.83
2022-12-14T11:00:09.249Z,95.40
2022-12-14T11:01:04.352Z,94.98
2022-12-14T11:02:03.349Z,94.76
2022-12-14T11:03:03.154Z,94.76
2022-12-14T11:06:15.609Z,95.08
2022-12-14T11:07:14.154Z,95.40
2022-12-14T11:08:14.407Z,95.40
2022-12-14T11:09:14.326Z,95.19
2022-12-14T11:10:14.121Z,94.98
2022-12-14T11:11:18.996Z,94.76
2022-12-14T11:12:15.208Z,95.08
2022-12-14T11:13:14.071Z,95.78
2022-12-14T11:14:13.998Z,95.78
2022-12-14T11:15:14.025Z,95.89
2022-12-14T11:16:14.206Z,95.84
2022-12-14T11:17:14.070Z,95.74
2022-12-14T11:18:14.016Z,95.74
2022-12-14T11:19:15.177Z,95.74
2022-12-14T11:20:14.059Z,95.63
2022-12-14T11:21:14.984Z,95.70
2022-12-14T11:22:20.252Z,95.70
2022-12-14T11:23:14.945Z,95.70
2022-12-14T11:24:14.373Z,95.80
2022-12-14T11:25:13.877Z,95.97
2022-12-14T11:26:14.395Z,95.70
2022-12-14T11:27:13.938Z,95.27
2022-12-14T11:28:13.948Z,94.85
2022-12-14T11:29:13.817Z,94.64
2022-12-14T11:30:13.957Z,95.06
2022-12-14T11:31:14.227Z,95.97
2022-12-14T11:32:13.849Z,96.29
2022-12-14T11:33:13.991Z,96.19
2022-12-14T11:34:20.459Z,95.93
2022-12-14T11:35:15.693Z,95.54
2022-12-14T11:36:13.889Z,95.23
2022-12-14T11:37:13.761Z,94.91
2022-12-14T11:38:13.787Z,94.91
2022-12-14T11:39:13.792Z,94.70
2022-12-14T11:40:13.803Z,94.59
2022-12-14T11:41:14.607Z,94.59
2022-12-14T11:42:13.692Z,94.81
2022-12-14T11:43:13.684Z,95.12
2022-12-14T11:44:14.823Z,95.12
2022-12-14T11:45:13.666Z,95.17
2022-12-14T11:46:13.912Z,95.06
2022-12-14T11:47:14.544Z,95.06
2022-12-14T11:48:13.864Z,95.76
2022-12-14T11:49:13.691Z,96.19
2022-12-14T11:50:13.706Z,96.50
2022-12-14T11:51:13.573Z,96.39
2022-12-14T11:52:14.563Z,96.25
2022-12-14T11:53:13.716Z,96.03
2022-12-14T11:54:13.589Z,96.03
2022-12-14T11:55:13.760Z,96.03
2022-12-14T11:56:13.592Z,96.03
2022-12-14T11:57:13.584Z,96.09
2022-12-14T11:58:13.533Z,95.89
2022-12-14T11:59:13.488Z,95.89
2022-12-14T12:00:13.577Z,95.67
2022-12-14T12:01:13.787Z,95.57
2022-12-14T12:02:13.465Z,95.36
2022-12-14T12:03:13.675Z,95.14
2022-12-14T12:04:13.535Z,95.25
2022-12-14T12:05:13.473Z,95.57
2022-12-14T12:06:13.492Z,96.05
2022-12-14T12:07:13.407Z,96.54
2022-12-14T12:08:13.405Z,96.54
2022-12-14T12:09:13.398Z,96.54
2022-12-14T12:10:13.413Z,96.28
2022-12-14T12:11:13.362Z,95.97
2022-12-14T12:12:13.385Z,95.76
2022-12-14T12:13:14.088Z,95.23
2022-12-14T12:14:13.487Z,94.70
2022-12-14T12:15:13.305Z,94.06
2022-12-14T12:16:13.539Z,93.79
2022-12-14T12:17:14.225Z,93.79
2022-12-14T12:18:13.262Z,94.42
2022-12-14T12:19:13.413Z,94.85
2022-12-14T12:20:13.289Z,95.27
2022-12-14T12:21:13.411Z,96.08
2022-12-14T12:22:13.245Z,96.24
2022-12-14T12:23:14.154Z,96.24
2022-12-14T12:24:13.254Z,96.45
2022-12-14T12:25:33.676Z,96.62
2022-12-14T12:26:14.176Z,96.73
2022-12-14T12:27:13.155Z,96.47
2022-12-14T12:28:13.403Z,96.26
2022-12-14T12:29:13.184Z,96.05
2022-12-14T12:30:13.224Z,95.52
2022-12-14T12:31:13.598Z,95.20
2022-12-14T12:32:13.283Z,94.95
2022-12-14T12:33:13.083Z,94.74
2022-12-14T12:34:13.257Z,94.64
2022-12-14T12:35:13.107Z,94.42
2022-12-14T12:36:13.036Z,93.89
2022-12-14T12:37:29.225Z,93.41
2022-12-14T12:38:14.093Z,93.19
2022-12-14T12:39:13.013Z,93.02
2022-12-14T12:40:13.053Z,92.92
2022-12-14T12:41:12.998Z,92.82
2022-12-14T12:42:13.232Z,93.60
2022-12-14T12:43:13.254Z,93.70
2022-12-14T12:44:13.246Z,94.13
2022-12-14T12:45:14.093Z,94.82
2022-12-14T12:46:13.076Z,95.03
2022-12-14T12:47:25.579Z,95.20
2022-12-14T12:48:13.893Z,95.10
2022-12-14T12:49:13.713Z,94.89
2022-12-14T12:50:12.930Z,94.46
2022-12-14T12:51:13.146Z,93.73
2022-12-14T12:52:13.935Z,93.55
2022-12-14T12:53:13.196Z,93.24
2022-12-14T12:54:12.865Z,93.13
2022-12-14T12:55:12.828Z,93.18